ヘネラル・ロベルト・フィエロ・ヴィラロボス国際空港の過去48時間の天気

ヘネラル・ロベルト・フィエロ・ヴィラロボス国際空港 (Chihuahua International Airport)

現在時刻: 9/25 13:48 MDT (9/25 19:48 UTC) 以下の時間は現地時間です。

過去48時間のMETAR気象情報
時間 風向 風速(m/s) 視程 気温(℃) 湿度(%) 気圧(hPa) 天気現象
25 12:40 北北東 4 10km以上 30 27 1021
25 11:45 南南西 3 10km以上 28 30 1014.1
25 10:47 南南西 3 10km以上 18 56 1022
25 09:48 南南西 3 10km以上 18 56 1022
25 08:40 南南西 3 10km以上 18 56 1013.8
25 07:42 南南西 3 10km以上 15 63 1022
25 04:40 3 10km以上 14 67 1021
24 20:42 南南西 3 10km以上 21 43 1012.2
24 19:47 南東 2 10km以上 21 40 1021
24 18:43 2 10km以上 27 28 1020
24 17:41 2 10km以上 29 23 1011.2
24 16:50 東南東 2 10km以上 30 22 1020
24 15:40 4 10km以上 30 25 1021
24 14:48 3 10km以上 29 25 1011.5
24 13:42 3 10km以上 29 27 1022
24 12:40 3 10km以上 28 27 1023
24 11:40 静穏 0 10km以上 27 34 1013.7
24 10:40 静穏 0 10km以上 26 34 1024
24 09:40 静穏 0 10km以上 23 47 1024
24 08:40 3 10km以上 20 53 1014.9
24 07:40 南南西 3 10km以上 15 67 1023
24 04:41 南南西 3 10km以上 12 82 1022
23 20:45 西 2 10km以上 21 43 1012.4
23 19:44 東南東 3 10km以上 22 41 1020
23 18:45 東南東 4 10km以上 25 34 1020
23 17:40 東北東 3 10km以上 28 28 1009.7
23 16:40 3 10km以上 29 29 1020
23 15:40 静穏 0 10km以上 28 30 1020
23 14:40 3 10km以上 29 27 1010.7
MMCU 251840Z 03007KT 10SM SKC 30/09 A3016 RMK VC CU
MMCU 251745Z 20006KT 10SM SKC 28/09 A3020 RMK SLP141 54000 961 CU NE
MMCU 251647Z 20005KT 10SM SKC 18/09 A3019
MMCU 251548Z 20006KT 10SM SKC 18/09 A3019
MMCU 251440Z 20006KT 10SM SKC 18/09 A3019 RMK SLP138 52012 960
MMCU 251342Z 21005KT 10SM SKC 15/08 A3018
MMCU 251040Z 19005KT 10SM SKC 14/08 A3015 RMK RTS
MMCU 250242Z 21005KT 10SM SKC 21/08 A3016 RMK SLP122 52012 903
MMCU 250147Z 14004KT 10SM SKC 21/07 A3014
MMCU 250043Z 09003KT 10SM SKC 27/07 A3013
MMCU 242341Z 08004KT 10SM SKC 29/06 A3012 RMK SLP112 57010 905 ISOL SC/CI
MMCU 242250Z 12004KT 10SM SKC 30/06 A3012 RMK ISOL SC/CI
MMCU 242140Z 35008KT 10SM SKC 30/08 A3014 RMK ISOL SC/CI
MMCU 242048Z 36005KT 10SM SKC 29/07 A3015 RMK SLP115 57023 904 CU SW
MMCU 241942Z 36006KT 10SM SKC 29/08 A3018 RMK CU SW
MMCU 241840Z 35005KT 10SM SKC 28/07 A3021
MMCU 241740Z 00000KT 10SM SKC 27/10 A3023 RMK SLP137 52001 905 CI NW
MMCU 241640Z 00000KT 9SM FEW200 26/09 A3024 RMK 8/001 HZY
MMCU 241540Z 00000KT 8SM FEW200 23/11 A3023 RMK 8/001 HZY
MMCU 241440Z 19006KT 8SM FEW200 20/10 A3023 RMK SLP149 52016 902 8/001 HZY
MMCU 241340Z 21005KT 8SM SKC 15/09 A3020 RMK HZY CI N
MMCU 241041Z 20006KT 10SM SKC 12/09 A3017 RMK RTS
MMCU 240245Z 26004KT 10SM SKC 21/08 A3015 RMK SLP124 52014 911
MMCU 240144Z 12006KT 10SM SKC 22/08 A3012
MMCU 240045Z 11007KT 10SM SKC 25/08 A3011
MMCU 232340Z 06006KT 10SM SKC 28/08 A3010 RMK SLP097 57011 951
MMCU 232240Z 09006KT 10SM SKC 29/09 A3011
MMCU 232140Z 00000KT 10SM SKC 28/09 A3012
MMCU 232040Z 09005KT 10SM SKC 29/08 A3013 RMK SLP107 57022 901 ISOL CU/AC W